Renato Steffen

Olheiro-Chefe - Sion
4 Jun 2028
Domingo
Processo

Personalidade

Adaptabilidade (17) Ambição (2) Controvérsia (4) Lealdade (17) Pressão (10) Profissionalismo (10) Espírito Esportivo (17) Temperamento (20)

Perfil

Estilo de Treinamento Democrático
Licença Continental Pro
Determinação 11
Gestão de Pessoas 10
Motivação 12
Disciplina 12
Satisfação no Trabalho
100%
Fadiga
0%
Função Olheiro-Chefe
Salário 31.9K p/s
Contrato 14.03.2029

Desempenho

Comportamento Bom
Eficácia do Treinamento
26%
Desenvolvimento do Jogador
45%
Prevenção de Lesões
60%
Implementação Tática
25%

Eventos Recentes

Avaliou um jogador agora
Apresentou um dossiê à direção agora
Aniversário agora
Avaliou um jogador agora

Monitorando agora

59
Jogador Clube Status Habilidade Confiança Observado Última observação Último voto
Simone Kosijer Triestina Ativo 98 / 100 40% 4 03.06.2028 -
Alexis Vossah Toulouse FC Ativo 118 / 133 40% 1 03.06.2028 -
Keagan Kekana Black Aces Ativo 73 / 103 40% 1 03.06.2028 -
Loris Benito Thun Perdido 103 / 110 72% 1 01.06.2028 -
Skima Togbe Novi Pazar Ativo 98 / 120 40% 1 01.06.2028 -
Luis Engelns TSG Hoffenheim Ativo 123 / 122 40% 1 01.06.2028 -
Sulyman Krubally Burton Albion Ativo 78 / 93 40% 1 01.06.2028 -
Luke Baartman Ghazl El Mahalla Ativo 117 / 102 40% 1 17.01.2028 -
Kauã Moraes Cruzeiro Ativo 121 / 141 40% 1 17.01.2028 -
Rafael Vargas Cortulua Ativo 89 / 92 40% 1 17.01.2028 -
Daniel Banjaqui Benfica Ativo 121 / 120 40% 3 04.01.2028 -
Victor Martinez Atletico Venezuela Ativo 86 / 83 40% 2 04.01.2028 -
Solomon John Halmstad Ativo 112 / 113 67% 1 01.01.2028 Aprovar
John Okoye Ebuka Atlético Mineiro Ativo 118 / 118 67% 1 01.01.2028 Aprovar
Amr Fathy Hajduk Split Ativo 121 / 121 67% 1 01.01.2028 Aprovar
Teo Rodríguez Pagano San Lorenzo Negociando 113 / 123 40% 1 30.08.2027 -
Dilan Villarreal Junior Ativo 89 / 97 40% 1 30.08.2027 -
Marvelous Freedom Ikorodu City Ativo 95 / 103 40% 1 26.08.2027 -
Gady Beyuku Modena Ativo 119 / 130 40% 5 16.08.2027 -
Mattia Mannini Juve Stabia Ativo 113 / 126 40% 1 02.08.2027 -
Ollie Scarles West Ham United Ativo 129 / 131 40% 1 02.08.2027 -
Afriyie Sulemana Hasaacas Ativo 99 / 91 40% 5 19.07.2027 -
Christ Inao Oulaï Fiorentina Ativo 131 / 146 40% 2 19.07.2027 -
Chibueze Oputa Rangers International Ativo 84 / 78 40% 1 19.07.2027 -
Milan Roganović Partizan Ativo 122 / 109 40% 6 14.07.2027 -
Ismaël Baouf Cambuur Ativo 116 / 138 40% 2 14.07.2027 -
Joe Bauress Grimsby Town Ativo 97 / 105 40% 1 14.07.2027 -
Kazunari Kita Real Sociedad Ativo 100 / 115 40% 3 10.07.2027 -
Martim Cunha Porto Ativo 98 / 104 40% 4 09.07.2027 -
Arjan Malić Sturm Graz Ativo 118 / 133 40% 5 07.07.2027 -
Mats Egbring Heerenveen Ativo 103 / 118 40% 4 07.07.2027 -
Ezra Mayers West Ham United Ativo 121 / 135 40% 4 07.07.2027 -
Axel Tape Bayer Leverkusen Ativo 130 / 123 40% 2 30.06.2027 -
Alessandro Ventre Vis Pesaro Ativo 98 / 101 40% 1 30.06.2027 -
Dylan Lawlor Cardiff City Ativo 116 / 133 40% 4 29.06.2027 -
Joe Knight Stevenage Ativo 102 / 109 40% 1 29.06.2027 -
Jenson Jones Peterborough United Ativo 90 / 92 40% 1 25.06.2027 -
Honest Ahanor Fiorentina Ativo 126 / 140 40% 2 20.06.2027 -
Davide Bartesaghi AC Milan Ativo 136 / 143 40% 1 16.06.2027 -
Finn Jeltsch VfB Stuttgart Ativo 134 / 133 40% 2 09.06.2027 -
Pedro Vian Seewald Arzignano Ativo 87 / 106 40% 1 09.06.2027 -
Riley Owen Bristol Rovers Ativo 100 / 113 40% 2 08.06.2027 -
Jaydee Canvot Crystal Palace Ativo 131 / 135 40% 1 07.06.2027 -
Thamsanqa Phiri Free State Stars Ativo 80 / 96 40% 1 23.01.2027 -
Miguel Figueiredo Benfica Ativo 111 / 117 40% 1 23.01.2027 -
Eivind Helland Bologna Ativo 122 / 131 40% 1 21.01.2027 -
Alessandro Zoboletti Sambenedettese Ativo 89 / 102 40% 1 21.01.2027 -
Ignacio Perruzzi San Lorenzo Ativo 119 / 118 40% 1 18.01.2027 -
Aune Heggebø West Bromwich Albion Ativo 132 / 121 40% 1 11.01.2027 -
James Dornelly Peterborough United Ativo 95 / 98 40% 2 05.01.2027 -
Raymond Agyemang Aduana Stars Ativo 83 / 87 40% 1 04.01.2027 -
Illaijh de Ruijter ADO Den Haag Ativo 108 / 110 40% 1 01.01.2027 -
John Mellberg Red Bull Salzburg Ativo 105 / 117 40% 1 29.08.2026 -
Mauricio Amaro Atlanta United FC Ativo 126 / 145 40% 1 27.08.2026 -
Mbekezeli Mbokazi Chicago Fire Ativo 120 / 132 40% 1 26.08.2026 -
Karl Steinmann SC Freiburg Ativo 102 / 107 40% 1 17.08.2026 -
Petar Petrović Sturm Graz Ativo 101 / 104 40% 1 17.08.2026 -
Dejan Radonjić SV Ried Ativo 103 / 131 40% 1 11.08.2026 -
David Đurić Wolfsberger AC Ativo 97 / 104 40% 1 11.08.2026 -